createdAt,value
2019-02-16T00:02:54.950Z,101428.52
2019-02-16T00:07:02.882Z,101434.89
2019-02-16T00:11:11.182Z,101438.52
2019-02-16T00:15:19.499Z,101433.72
2019-02-16T00:19:27.218Z,101440.08
2019-02-16T00:23:35.039Z,101437.44
2019-02-16T00:27:43.866Z,101435.12
2019-02-16T00:31:52.355Z,101444.06
2019-02-16T00:36:00.186Z,101447.56
2019-02-16T00:40:08.913Z,101455.08
2019-02-16T00:44:17.368Z,101450.16
2019-02-16T00:48:26.163Z,101452.61
2019-02-16T00:52:34.399Z,101441.52
2019-02-16T00:56:42.739Z,101436.84
2019-02-16T01:00:51.349Z,101441.55
2019-02-16T01:04:59.495Z,101432.72
2019-02-16T01:09:07.899Z,101429.06
2019-02-16T01:13:16.317Z,101428.91
2019-02-16T01:17:24.842Z,101421.51
2019-02-16T01:21:34.400Z,101415.47
2019-02-16T01:25:42.829Z,101412.55
2019-02-16T01:29:51.048Z,101410.73
2019-02-16T01:33:59.375Z,101415.88
2019-02-16T01:38:07.377Z,101408.34
2019-02-16T01:42:15.819Z,101412.50
2019-02-16T01:46:24.053Z,101415.98
2019-02-16T01:50:32.856Z,101414.66
2019-02-16T01:54:40.471Z,101409.75
2019-02-16T01:58:48.571Z,101402.50
2019-02-16T02:02:56.906Z,101395.32
2019-02-16T02:07:04.614Z,101403.36
2019-02-16T02:11:13.148Z,101395.91
2019-02-16T02:15:21.551Z,101399.98
2019-02-16T02:19:29.479Z,101399.54
2019-02-16T02:23:37.708Z,101395.87
2019-02-16T02:27:46.009Z,101403.06
2019-02-16T02:31:53.814Z,101405.75
2019-02-16T02:36:01.736Z,101412.00
2019-02-16T02:40:10.071Z,101420.08
2019-02-16T02:44:17.829Z,101419.56
2019-02-16T02:48:26.007Z,101421.27
2019-02-16T02:52:33.610Z,101423.30
2019-02-16T02:56:41.815Z,101420.33
2019-02-16T03:00:50.262Z,101413.09
2019-02-16T03:04:58.305Z,101410.72
2019-02-16T03:09:06.821Z,101406.50
2019-02-16T03:13:16.222Z,101410.38
2019-02-16T03:17:24.349Z,101407.30
2019-02-16T03:21:33.180Z,101396.24
2019-02-16T03:25:43.056Z,101403.53
2019-02-16T03:30:34.604Z,101407.42
2019-02-16T03:35:04.593Z,101417.69
2019-02-16T03:39:25.426Z,101416.76
2019-02-16T03:43:33.114Z,101414.92
2019-02-16T03:47:41.756Z,101419.07
2019-02-16T03:51:49.676Z,101407.67
2019-02-16T03:55:57.363Z,101414.05
2019-02-16T04:00:06.037Z,101418.67
2019-02-16T04:04:13.929Z,101410.11
2019-02-16T04:08:22.148Z,101416.50
2019-02-16T04:12:30.863Z,101420.20
2019-02-16T04:16:38.783Z,101420.70
2019-02-16T04:20:47.315Z,101424.32
2019-02-16T04:24:56.124Z,101432.97
2019-02-16T04:29:04.989Z,101438.63
2019-02-16T04:33:13.141Z,101446.91
2019-02-16T04:37:21.515Z,101449.18
2019-02-16T04:41:29.027Z,101450.11
2019-02-16T04:45:37.217Z,101449.05
2019-02-16T04:49:45.565Z,101456.91
2019-02-16T04:53:53.223Z,101454.72
2019-02-16T04:58:01.383Z,101456.18
2019-02-16T05:02:09.403Z,101457.24
2019-02-16T05:06:17.348Z,101453.97
2019-02-16T05:10:25.410Z,101447.78
2019-02-16T05:14:33.083Z,101452.34
2019-02-16T05:18:40.830Z,101463.06
2019-02-16T05:22:48.674Z,101470.56
2019-02-16T05:26:56.293Z,101475.13
2019-02-16T05:31:05.064Z,101477.90
2019-02-16T05:35:13.190Z,101484.33
2019-02-16T05:39:21.014Z,101488.84
2019-02-16T05:43:29.003Z,101484.25
2019-02-16T05:47:37.463Z,101481.96
2019-02-16T05:51:45.257Z,101491.42
2019-02-16T05:55:53.561Z,101500.47
2019-02-16T06:00:01.437Z,101493.94
2019-02-16T06:04:09.803Z,101492.85
2019-02-16T06:08:18.295Z,101506.01
2019-02-16T06:12:26.021Z,101504.49
2019-02-16T06:16:34.339Z,101514.16
2019-02-16T06:20:42.153Z,101512.28
2019-02-16T06:24:49.974Z,101509.84
2019-02-16T06:28:58.087Z,101512.08
2019-02-16T06:33:07.321Z,101517.68
2019-02-16T06:37:25.391Z,101509.84
2019-02-16T06:41:33.374Z,101519.41
2019-02-16T06:45:41.532Z,101517.02
2019-02-16T06:49:49.667Z,101519.92
2019-02-16T06:53:57.340Z,101530.61
2019-02-16T06:58:05.143Z,101533.50
2019-02-16T07:02:13.629Z,101536.69
2019-02-16T07:06:24.102Z,101531.68
2019-02-16T07:10:32.313Z,101535.59
2019-02-16T07:14:40.618Z,101529.66
2019-02-16T07:18:57.440Z,101531.38
2019-02-16T07:23:05.555Z,101526.31
2019-02-16T07:27:13.789Z,101529.34
2019-02-16T07:31:21.886Z,101536.91
2019-02-16T07:35:30.371Z,101527.41
2019-02-16T07:39:38.624Z,101523.05
2019-02-16T07:44:04.536Z,101512.55
2019-02-16T07:48:17.502Z,101520.68
2019-02-16T07:52:33.109Z,101514.49
2019-02-16T07:56:57.809Z,101515.45
2019-02-16T08:01:24.619Z,101515.03
2019-02-16T08:05:39.944Z,101503.25
2019-02-16T08:10:06.701Z,101510.31
2019-02-16T08:14:45.805Z,101504.98
2019-02-16T08:19:16.119Z,101502.59
2019-02-16T08:23:42.212Z,101497.72
2019-02-16T08:28:13.904Z,101503.22
2019-02-16T08:32:50.007Z,101504.59
2019-02-16T08:37:08.076Z,101492.64
2019-02-16T08:41:38.403Z,101501.51
2019-02-16T08:46:09.522Z,101495.22
2019-02-16T08:50:42.433Z,101496.23
2019-02-16T08:55:18.493Z,101498.03
2019-02-16T08:59:51.656Z,101495.06
2019-02-16T09:04:17.800Z,101490.73
2019-02-16T09:08:41.987Z,101497.31
2019-02-16T09:13:11.850Z,101484.87
2019-02-16T09:17:47.713Z,101488.47
2019-02-16T09:22:07.807Z,101486.91
2019-02-16T09:26:30.936Z,101480.52
2019-02-16T09:31:07.547Z,101480.67
2019-02-16T09:35:33.295Z,101470.75
2019-02-16T09:40:15.280Z,101455.38
2019-02-16T09:44:48.364Z,101447.45
2019-02-16T09:49:15.540Z,101448.03
2019-02-16T09:53:51.804Z,101445.78
2019-02-16T09:58:30.734Z,101442.27
2019-02-16T10:02:56.728Z,101433.24
2019-02-16T10:07:30.525Z,101427.17
2019-02-16T10:11:56.073Z,101436.82
2019-02-16T10:16:35.048Z,101418.97
2019-02-16T10:21:02.228Z,101417.00
2019-02-16T10:25:44.337Z,101416.28
2019-02-16T10:30:11.136Z,101401.03
2019-02-16T10:34:37.234Z,101401.41
2019-02-16T10:39:02.710Z,101393.83
2019-02-16T10:43:33.461Z,101402.56
2019-02-16T10:47:58.685Z,101389.77
2019-02-16T10:52:14.526Z,101395.19
2019-02-16T10:56:35.159Z,101385.22
2019-02-16T11:01:02.089Z,101392.76
2019-02-16T11:05:28.947Z,101388.67
2019-02-16T11:10:11.071Z,101391.31
2019-02-16T11:14:29.422Z,101384.13
2019-02-16T11:18:56.623Z,101386.45
2019-02-16T11:23:22.518Z,101382.85
2019-02-16T11:27:47.891Z,101382.22
2019-02-16T11:32:13.712Z,101381.28
2019-02-16T11:36:49.489Z,101378.91
2019-02-16T11:41:19.819Z,101383.02
2019-02-16T11:45:38.419Z,101381.88
2019-02-16T11:50:16.907Z,101378.18
2019-02-16T11:54:45.207Z,101380.66
2019-02-16T11:59:17.497Z,101372.25
2019-02-16T12:03:41.014Z,101359.08
2019-02-16T12:07:59.221Z,101358.45
2019-02-16T12:12:31.126Z,101355.78
2019-02-16T12:16:58.219Z,101365.36
2019-02-16T12:21:25.123Z,101367.44
2019-02-16T12:25:52.098Z,101361.84
2019-02-16T12:30:17.012Z,101350.00
2019-02-16T12:34:30.915Z,101356.25
2019-02-16T12:38:51.098Z,101358.39
2019-02-16T12:43:20.660Z,101355.39
2019-02-16T12:47:38.246Z,101363.34
2019-02-16T12:52:16.865Z,101356.25
2019-02-16T12:56:47.155Z,101359.30
2019-02-16T13:01:13.955Z,101354.84
2019-02-16T13:05:58.938Z,101355.48
2019-02-16T13:10:25.776Z,101343.12
2019-02-16T13:14:54.855Z,101348.14
2019-02-16T13:19:25.719Z,101339.22
2019-02-16T13:23:58.608Z,101337.03
2019-02-16T13:28:17.169Z,101335.63
2019-02-16T13:32:49.571Z,101338.14
2019-02-16T13:37:15.541Z,101342.12
2019-02-16T13:41:36.307Z,101336.45
2019-02-16T13:46:08.887Z,101325.55
2019-02-16T13:50:36.096Z,101331.27
2019-02-16T13:55:02.619Z,101330.65
2019-02-16T13:59:28.589Z,101327.59
2019-02-16T14:03:53.992Z,101327.38
2019-02-16T14:08:23.691Z,101323.98
2019-02-16T14:12:53.239Z,101321.78
2019-02-16T14:17:23.129Z,101319.61
2019-02-16T14:21:31.423Z,101331.56
2019-02-16T14:25:45.747Z,101334.20
2019-02-16T14:29:53.704Z,101333.05
2019-02-16T14:34:01.937Z,101326.86
2019-02-16T14:38:28.492Z,101329.82
2019-02-16T14:42:36.807Z,101328.41
2019-02-16T14:46:44.619Z,101325.60
2019-02-16T14:50:52.325Z,101322.47
2019-02-16T14:54:59.979Z,101329.81
2019-02-16T14:59:08.718Z,101326.14
2019-02-16T15:03:16.479Z,101326.28
2019-02-16T15:07:24.396Z,101330.48
2019-02-16T15:11:32.692Z,101326.36
2019-02-16T15:15:40.501Z,101324.59
2019-02-16T15:19:48.230Z,101321.20
2019-02-16T15:23:55.950Z,101318.64
2019-02-16T15:28:03.654Z,101317.10
2019-02-16T15:32:11.951Z,101324.06
2019-02-16T15:36:24.047Z,101322.77
2019-02-16T15:40:29.305Z,101333.28
2019-02-16T15:44:37.018Z,101330.83
2019-02-16T15:48:44.845Z,101333.87
2019-02-16T15:52:52.642Z,101337.25
2019-02-16T15:57:00.690Z,101334.36
2019-02-16T16:01:08.570Z,101337.38
2019-02-16T16:05:16.791Z,101343.33
2019-02-16T16:09:34.544Z,101342.24
2019-02-16T16:14:16.364Z,101348.63
2019-02-16T16:18:46.166Z,101346.52
2019-02-16T16:23:18.849Z,101350.19
2019-02-16T16:27:34.143Z,101349.16
2019-02-16T16:31:52.243Z,101357.02
2019-02-16T16:36:25.240Z,101354.97
2019-02-16T16:40:58.421Z,101354.59
2019-02-16T16:45:23.855Z,101358.98
2019-02-16T16:50:05.514Z,101364.86
2019-02-16T16:54:38.221Z,101363.32
2019-02-16T16:59:07.944Z,101367.77
2019-02-16T17:03:49.938Z,101366.89
2019-02-16T17:08:24.145Z,101366.14
2019-02-16T17:12:41.870Z,101370.00
2019-02-16T17:17:08.937Z,101366.31
2019-02-16T17:21:38.787Z,101363.76
2019-02-16T17:26:04.273Z,101364.63
2019-02-16T17:30:34.958Z,101362.52
2019-02-16T17:35:00.973Z,101367.81
2019-02-16T17:39:32.489Z,101368.39
2019-02-16T17:44:05.546Z,101365.75
2019-02-16T17:48:36.695Z,101365.13
2019-02-16T17:53:18.584Z,101360.59
2019-02-16T17:57:54.521Z,101364.00
2019-02-16T18:02:13.592Z,101361.63
2019-02-16T18:06:43.105Z,101359.37
2019-02-16T18:11:12.969Z,101358.50
2019-02-16T18:15:40.870Z,101357.41
2019-02-16T18:19:57.188Z,101356.73
2019-02-16T18:24:24.064Z,101359.91
2019-02-16T18:28:46.692Z,101359.74
2019-02-16T18:33:19.936Z,101360.41
2019-02-16T18:37:43.665Z,101371.59
2019-02-16T18:42:09.620Z,101369.63
2019-02-16T18:46:42.370Z,101370.95
2019-02-16T18:51:07.750Z,101374.31
2019-02-16T18:55:34.569Z,101370.20
2019-02-16T19:00:04.745Z,101367.70
2019-02-16T19:04:34.136Z,101369.28
2019-02-16T19:09:13.485Z,101369.59
2019-02-16T19:13:44.481Z,101360.12
2019-02-16T19:18:08.118Z,101373.23
2019-02-16T19:22:34.833Z,101368.89
2019-02-16T19:27:00.506Z,101372.63
2019-02-16T19:31:22.710Z,101373.62
2019-02-16T19:35:48.127Z,101375.80
2019-02-16T19:40:13.622Z,101368.17
2019-02-16T19:44:32.839Z,101378.75
2019-02-16T19:49:08.811Z,101379.26
2019-02-16T19:53:38.900Z,101378.69
2019-02-16T19:57:54.879Z,101377.41
2019-02-16T20:02:39.649Z,101373.67
2019-02-16T20:07:06.674Z,101375.31
2019-02-16T20:11:32.809Z,101367.44
2019-02-16T20:15:56.024Z,101367.59
2019-02-16T20:20:21.106Z,101364.63
2019-02-16T20:24:57.205Z,101358.28
2019-02-16T20:29:24.335Z,101359.05
2019-02-16T20:33:48.231Z,101361.36
2019-02-16T20:38:18.198Z,101355.98
2019-02-16T20:42:41.716Z,101355.18
2019-02-16T20:47:01.209Z,101346.94
2019-02-16T20:51:30.699Z,101348.25
2019-02-16T20:55:50.831Z,101349.53
2019-02-16T21:00:08.001Z,101343.09
2019-02-16T21:04:34.754Z,101341.23
2019-02-16T21:08:52.213Z,101347.91
2019-02-16T21:13:09.263Z,101346.81
2019-02-16T21:17:38.682Z,101338.22
2019-02-16T21:22:18.037Z,101337.95
2019-02-16T21:26:53.886Z,101343.71
2019-02-16T21:31:26.515Z,101345.05
2019-02-16T21:36:05.440Z,101342.64
2019-02-16T21:40:37.849Z,101350.42
2019-02-16T21:45:04.565Z,101344.86
2019-02-16T21:49:29.115Z,101349.34
2019-02-16T21:53:50.350Z,101348.89
2019-02-16T21:58:20.174Z,101346.45
2019-02-16T22:02:37.867Z,101349.44
2019-02-16T22:06:58.569Z,101347.02
2019-02-16T22:11:24.258Z,101350.75
2019-02-16T22:15:32.905Z,101350.07
2019-02-16T22:19:40.536Z,101338.75
2019-02-16T22:23:48.648Z,101336.70
2019-02-16T22:27:56.991Z,101335.00
2019-02-16T22:32:04.890Z,101331.34
2019-02-16T22:36:12.427Z,101328.05
2019-02-16T22:40:20.772Z,101327.80
2019-02-16T22:44:28.511Z,101322.53
2019-02-16T22:48:36.755Z,101321.93
2019-02-16T22:52:44.551Z,101316.98
2019-02-16T22:56:52.332Z,101315.48
2019-02-16T23:01:00.836Z,101312.91
2019-02-16T23:05:10.219Z,101311.84
2019-02-16T23:09:28.888Z,101310.91
2019-02-16T23:13:37.153Z,101314.69
2019-02-16T23:17:44.823Z,101304.63
2019-02-16T23:21:53.214Z,101304.85
2019-02-16T23:26:00.847Z,101297.75
2019-02-16T23:30:08.962Z,101292.88
2019-02-16T23:34:17.064Z,101292.94
2019-02-16T23:38:24.863Z,101292.14
2019-02-16T23:42:32.979Z,101291.73
2019-02-16T23:46:40.804Z,101282.34
2019-02-16T23:50:48.514Z,101288.52
2019-02-16T23:54:56.213Z,101283.55
2019-02-16T23:59:03.688Z,101283.23
